sensor_id;sensor_type;location;lat;lon;timestamp;temperature;humidity
66257;DHT22;53049;43.446;3.698;2023-10-31T00:00:22;13.00;99.90
66257;DHT22;53049;43.446;3.698;2023-10-31T00:02:47;13.00;99.90
66257;DHT22;53049;43.446;3.698;2023-10-31T00:05:13;13.00;99.90
66257;DHT22;53049;43.446;3.698;2023-10-31T00:07:39;13.00;99.90
66257;DHT22;53049;43.446;3.698;2023-10-31T00:10:04;13.10;99.90
66257;DHT22;53049;43.446;3.698;2023-10-31T00:12:30;13.10;99.90
66257;DHT22;53049;43.446;3.698;2023-10-31T00:14:56;13.10;99.90
66257;DHT22;53049;43.446;3.698;2023-10-31T00:17:21;13.20;99.90
66257;DHT22;53049;43.446;3.698;2023-10-31T00:19:47;13.20;99.90
66257;DHT22;53049;43.446;3.698;2023-10-31T00:22:13;13.20;99.90
66257;DHT22;53049;43.446;3.698;2023-10-31T00:24:38;13.10;99.90
66257;DHT22;53049;43.446;3.698;2023-10-31T00:27:04;13.10;99.90
66257;DHT22;53049;43.446;3.698;2023-10-31T00:29:30;13.10;99.90
66257;DHT22;53049;43.446;3.698;2023-10-31T00:31:56;13.10;99.90
66257;DHT22;53049;43.446;3.698;2023-10-31T00:34:21;13.10;99.90
66257;DHT22;53049;43.446;3.698;2023-10-31T00:36:47;13.10;99.90
66257;DHT22;53049;43.446;3.698;2023-10-31T00:39:13;13.00;99.90
66257;DHT22;53049;43.446;3.698;2023-10-31T00:41:43;13.00;99.90
66257;DHT22;53049;43.446;3.698;2023-10-31T00:44:10;12.90;99.90
66257;DHT22;53049;43.446;3.698;2023-10-31T00:46:35;12.90;99.90
66257;DHT22;53049;43.446;3.698;2023-10-31T00:49:01;12.90;99.90
66257;DHT22;53049;43.446;3.698;2023-10-31T00:51:26;12.90;99.90
66257;DHT22;53049;43.446;3.698;2023-10-31T00:53:52;12.80;99.90
66257;DHT22;53049;43.446;3.698;2023-10-31T00:56:18;12.90;99.90
66257;DHT22;53049;43.446;3.698;2023-10-31T00:58:43;12.80;99.90
66257;DHT22;53049;43.446;3.698;2023-10-31T01:01:10;12.80;99.90
66257;DHT22;53049;43.446;3.698;2023-10-31T01:03:36;12.90;99.90
66257;DHT22;53049;43.446;3.698;2023-10-31T01:06:04;12.80;99.90
66257;DHT22;53049;43.446;3.698;2023-10-31T01:08:29;12.80;99.90
66257;DHT22;53049;43.446;3.698;2023-10-31T01:10:55;12.80;99.90
66257;DHT22;53049;43.446;3.698;2023-10-31T01:13:21;12.70;99.90
66257;DHT22;53049;43.446;3.698;2023-10-31T01:15:47;12.70;99.90
66257;DHT22;53049;43.446;3.698;2023-10-31T01:18:12;12.60;99.90
66257;DHT22;53049;43.446;3.698;2023-10-31T01:20:38;12.60;99.90
66257;DHT22;53049;43.446;3.698;2023-10-31T01:23:04;12.60;99.90
66257;DHT22;53049;43.446;3.698;2023-10-31T01:25:30;12.60;99.90
66257;DHT22;53049;43.446;3.698;2023-10-31T01:27:56;12.70;99.90
66257;DHT22;53049;43.446;3.698;2023-10-31T01:30:22;12.70;99.90
66257;DHT22;53049;43.446;3.698;2023-10-31T01:32:48;12.70;99.90
66257;DHT22;53049;43.446;3.698;2023-10-31T01:35:13;12.70;99.90
66257;DHT22;53049;43.446;3.698;2023-10-31T01:37:39;12.70;99.90
66257;DHT22;53049;43.446;3.698;2023-10-31T01:40:05;12.70;99.90
66257;DHT22;53049;43.446;3.698;2023-10-31T01:42:32;12.60;99.90
66257;DHT22;53049;43.446;3.698;2023-10-31T01:44:58;12.60;99.90
66257;DHT22;53049;43.446;3.698;2023-10-31T01:47:24;12.50;99.90
66257;DHT22;53049;43.446;3.698;2023-10-31T01:49:51;12.40;99.90
66257;DHT22;53049;43.446;3.698;2023-10-31T01:52:17;12.40;99.90
66257;DHT22;53049;43.446;3.698;2023-10-31T01:54:44;12.40;99.90
66257;DHT22;53049;43.446;3.698;2023-10-31T01:57:10;12.40;99.90
66257;DHT22;53049;43.446;3.698;2023-10-31T01:59:36;12.40;99.90
66257;DHT22;53049;43.446;3.698;2023-10-31T02:02:03;12.40;99.90
66257;DHT22;53049;43.446;3.698;2023-10-31T02:04:29;12.40;99.90
66257;DHT22;53049;43.446;3.698;2023-10-31T02:06:55;12.40;99.90
66257;DHT22;53049;43.446;3.698;2023-10-31T02:09:20;12.40;99.90
66257;DHT22;53049;43.446;3.698;2023-10-31T02:11:50;12.30;99.90
66257;DHT22;53049;43.446;3.698;2023-10-31T02:14:15;12.20;99.90
66257;DHT22;53049;43.446;3.698;2023-10-31T02:16:41;12.10;99.90
66257;DHT22;53049;43.446;3.698;2023-10-31T02:19:07;12.10;99.90
66257;DHT22;53049;43.446;3.698;2023-10-31T02:24:01;11.90;99.90
66257;DHT22;53049;43.446;3.698;2023-10-31T02:26:31;11.80;99.90
66257;DHT22;53049;43.446;3.698;2023-10-31T02:28:57;11.70;99.90
66257;DHT22;53049;43.446;3.698;2023-10-31T02:31:23;11.70;99.90
66257;DHT22;53049;43.446;3.698;2023-10-31T02:33:49;11.60;99.90
66257;DHT22;53049;43.446;3.698;2023-10-31T02:36:14;11.50;99.90
66257;DHT22;53049;43.446;3.698;2023-10-31T02:38:40;11.60;99.90
66257;DHT22;53049;43.446;3.698;2023-10-31T02:41:06;11.70;99.90
66257;DHT22;53049;43.446;3.698;2023-10-31T02:43:32;11.80;99.90
66257;DHT22;53049;43.446;3.698;2023-10-31T02:45:57;11.90;99.90
66257;DHT22;53049;43.446;3.698;2023-10-31T02:48:23;11.90;99.90
66257;DHT22;53049;43.446;3.698;2023-10-31T02:50:50;11.80;99.90
66257;DHT22;53049;43.446;3.698;2023-10-31T02:53:18;11.80;99.90
66257;DHT22;53049;43.446;3.698;2023-10-31T02:55:44;11.70;99.90
66257;DHT22;53049;43.446;3.698;2023-10-31T02:58:10;11.80;99.90
66257;DHT22;53049;43.446;3.698;2023-10-31T03:00:36;11.90;99.90
66257;DHT22;53049;43.446;3.698;2023-10-31T03:03:02;11.90;99.90
66257;DHT22;53049;43.446;3.698;2023-10-31T03:05:28;11.90;99.90
66257;DHT22;53049;43.446;3.698;2023-10-31T03:07:54;11.90;99.90
66257;DHT22;53049;43.446;3.698;2023-10-31T03:10:20;11.90;99.90
66257;DHT22;53049;43.446;3.698;2023-10-31T03:12:47;11.90;99.90
66257;DHT22;53049;43.446;3.698;2023-10-31T03:15:13;11.80;99.90
66257;DHT22;53049;43.446;3.698;2023-10-31T03:17:39;11.70;99.90
66257;DHT22;53049;43.446;3.698;2023-10-31T03:20:05;11.60;99.90
66257;DHT22;53049;43.446;3.698;2023-10-31T03:22:31;11.50;99.90
66257;DHT22;53049;43.446;3.698;2023-10-31T03:24:57;11.50;99.90
66257;DHT22;53049;43.446;3.698;2023-10-31T03:27:23;11.50;99.90
66257;DHT22;53049;43.446;3.698;2023-10-31T03:29:48;11.40;99.90
66257;DHT22;53049;43.446;3.698;2023-10-31T03:32:14;11.40;99.90
66257;DHT22;53049;43.446;3.698;2023-10-31T03:34:41;11.50;99.90
66257;DHT22;53049;43.446;3.698;2023-10-31T03:37:07;11.40;99.90
66257;DHT22;53049;43.446;3.698;2023-10-31T03:39:32;11.30;99.90
66257;DHT22;53049;43.446;3.698;2023-10-31T03:41:59;11.30;99.90
66257;DHT22;53049;43.446;3.698;2023-10-31T03:44:24;11.10;99.90
66257;DHT22;53049;43.446;3.698;2023-10-31T03:46:50;11.20;99.90
66257;DHT22;53049;43.446;3.698;2023-10-31T03:49:16;11.30;99.90
66257;DHT22;53049;43.446;3.698;2023-10-31T03:51:42;11.30;99.90
66257;DHT22;53049;43.446;3.698;2023-10-31T03:54:08;11.40;99.90
66257;DHT22;53049;43.446;3.698;2023-10-31T03:56:41;11.40;99.90
66257;DHT22;53049;43.446;3.698;2023-10-31T03:59:07;11.40;99.90
66257;DHT22;53049;43.446;3.698;2023-10-31T04:01:33;11.40;99.90
66257;DHT22;53049;43.446;3.698;2023-10-31T04:03:59;11.50;99.90
66257;DHT22;53049;43.446;3.698;2023-10-31T04:06:24;11.50;99.90
66257;DHT22;53049;43.446;3.698;2023-10-31T04:08:50;11.40;99.90
66257;DHT22;53049;43.446;3.698;2023-10-31T04:11:16;11.50;99.90
66257;DHT22;53049;43.446;3.698;2023-10-31T04:13:41;11.40;99.90
66257;DHT22;53049;43.446;3.698;2023-10-31T04:16:07;11.40;99.90
66257;DHT22;53049;43.446;3.698;2023-10-31T04:18:33;11.50;99.90
66257;DHT22;53049;43.446;3.698;2023-10-31T04:20:58;11.40;99.90
66257;DHT22;53049;43.446;3.698;2023-10-31T04:23:24;11.50;99.90
66257;DHT22;53049;43.446;3.698;2023-10-31T04:25:51;11.50;99.90
66257;DHT22;53049;43.446;3.698;2023-10-31T04:28:18;11.50;99.90
66257;DHT22;53049;43.446;3.698;2023-10-31T04:30:44;11.40;99.90
66257;DHT22;53049;43.446;3.698;2023-10-31T04:33:10;11.40;99.90
66257;DHT22;53049;43.446;3.698;2023-10-31T04:35:35;11.40;99.90
66257;DHT22;53049;43.446;3.698;2023-10-31T04:38:01;11.30;99.90
66257;DHT22;53049;43.446;3.698;2023-10-31T04:40:27;11.30;99.90
66257;DHT22;53049;43.446;3.698;2023-10-31T04:42:53;11.30;99.90
66257;DHT22;53049;43.446;3.698;2023-10-31T04:45:19;11.40;99.90
66257;DHT22;53049;43.446;3.698;2023-10-31T04:47:45;11.40;99.90
66257;DHT22;53049;43.446;3.698;2023-10-31T04:50:10;11.60;99.90
66257;DHT22;53049;43.446;3.698;2023-10-31T04:52:36;11.80;99.90
66257;DHT22;53049;43.446;3.698;2023-10-31T04:55:02;11.90;99.90
66257;DHT22;53049;43.446;3.698;2023-10-31T04:57:27;12.00;99.90
66257;DHT22;53049;43.446;3.698;2023-10-31T04:59:53;12.00;99.90
66257;DHT22;53049;43.446;3.698;2023-10-31T05:02:23;12.00;99.90
66257;DHT22;53049;43.446;3.698;2023-10-31T05:04:49;11.90;99.90
66257;DHT22;53049;43.446;3.698;2023-10-31T05:07:17;11.90;99.90
66257;DHT22;53049;43.446;3.698;2023-10-31T05:09:43;11.90;99.90
66257;DHT22;53049;43.446;3.698;2023-10-31T05:12:08;11.80;99.90
66257;DHT22;53049;43.446;3.698;2023-10-31T05:14:35;11.80;99.90
66257;DHT22;53049;43.446;3.698;2023-10-31T05:17:00;11.80;99.90
66257;DHT22;53049;43.446;3.698;2023-10-31T05:19:26;11.70;99.90
66257;DHT22;53049;43.446;3.698;2023-10-31T05:21:52;11.60;99.90
66257;DHT22;53049;43.446;3.698;2023-10-31T05:24:18;11.50;99.90
66257;DHT22;53049;43.446;3.698;2023-10-31T05:26:44;11.40;99.90
66257;DHT22;53049;43.446;3.698;2023-10-31T05:29:11;11.20;99.90
66257;DHT22;53049;43.446;3.698;2023-10-31T05:31:36;11.20;99.90
66257;DHT22;53049;43.446;3.698;2023-10-31T05:34:02;11.20;99.90
66257;DHT22;53049;43.446;3.698;2023-10-31T05:36:32;11.10;99.90
66257;DHT22;53049;43.446;3.698;2023-10-31T05:38:57;11.10;99.90
66257;DHT22;53049;43.446;3.698;2023-10-31T05:41:23;11.10;99.90
66257;DHT22;53049;43.446;3.698;2023-10-31T05:43:49;11.10;99.90
66257;DHT22;53049;43.446;3.698;2023-10-31T05:46:15;10.90;99.90
66257;DHT22;53049;43.446;3.698;2023-10-31T05:48:42;11.00;99.90
66257;DHT22;53049;43.446;3.698;2023-10-31T05:51:17;11.10;99.90
66257;DHT22;53049;43.446;3.698;2023-10-31T05:53:44;11.10;99.90
66257;DHT22;53049;43.446;3.698;2023-10-31T05:56:12;11.10;99.90
66257;DHT22;53049;43.446;3.698;2023-10-31T05:58:38;11.10;99.90
66257;DHT22;53049;43.446;3.698;2023-10-31T06:01:04;11.10;99.90
66257;DHT22;53049;43.446;3.698;2023-10-31T06:03:30;11.00;99.90
66257;DHT22;53049;43.446;3.698;2023-10-31T06:05:56;10.90;99.90
66257;DHT22;53049;43.446;3.698;2023-10-31T06:08:22;10.90;99.90
66257;DHT22;53049;43.446;3.698;2023-10-31T06:10:50;10.90;99.90
66257;DHT22;53049;43.446;3.698;2023-10-31T06:13:16;10.90;99.90
66257;DHT22;53049;43.446;3.698;2023-10-31T06:15:42;11.00;99.90
66257;DHT22;53049;43.446;3.698;2023-10-31T06:18:08;10.90;99.90
66257;DHT22;53049;43.446;3.698;2023-10-31T06:20:34;10.90;99.90
66257;DHT22;53049;43.446;3.698;2023-10-31T06:23:01;10.90;99.90
66257;DHT22;53049;43.446;3.698;2023-10-31T06:25:29;11.00;99.90
66257;DHT22;53049;43.446;3.698;2023-10-31T06:27:55;10.90;99.90
66257;DHT22;53049;43.446;3.698;2023-10-31T06:30:21;11.00;99.90
66257;DHT22;53049;43.446;3.698;2023-10-31T06:32:46;11.10;99.90
66257;DHT22;53049;43.446;3.698;2023-10-31T06:35:12;11.10;99.90
66257;DHT22;53049;43.446;3.698;2023-10-31T06:37:38;11.00;99.90
66257;DHT22;53049;43.446;3.698;2023-10-31T06:40:04;10.90;99.90
66257;DHT22;53049;43.446;3.698;2023-10-31T06:42:31;10.80;99.90
66257;DHT22;53049;43.446;3.698;2023-10-31T06:44:56;10.80;99.90
66257;DHT22;53049;43.446;3.698;2023-10-31T06:47:22;10.80;99.90
66257;DHT22;53049;43.446;3.698;2023-10-31T06:49:47;10.80;99.90
66257;DHT22;53049;43.446;3.698;2023-10-31T06:52:13;10.80;99.90
66257;DHT22;53049;43.446;3.698;2023-10-31T06:54:39;10.80;99.90
66257;DHT22;53049;43.446;3.698;2023-10-31T06:57:04;10.80;99.90
66257;DHT22;53049;43.446;3.698;2023-10-31T06:59:30;10.80;99.90
66257;DHT22;53049;43.446;3.698;2023-10-31T07:01:56;10.80;99.90
66257;DHT22;53049;43.446;3.698;2023-10-31T07:04:22;10.70;99.90
66257;DHT22;53049;43.446;3.698;2023-10-31T07:06:47;10.80;99.90
66257;DHT22;53049;43.446;3.698;2023-10-31T07:09:13;10.80;99.90
66257;DHT22;53049;43.446;3.698;2023-10-31T07:11:39;10.80;99.90
66257;DHT22;53049;43.446;3.698;2023-10-31T07:14:05;10.80;99.90
66257;DHT22;53049;43.446;3.698;2023-10-31T07:16:32;10.80;99.90
66257;DHT22;53049;43.446;3.698;2023-10-31T07:18:58;10.80;99.90
66257;DHT22;53049;43.446;3.698;2023-10-31T07:21:23;10.80;99.90
66257;DHT22;53049;43.446;3.698;2023-10-31T07:23:49;10.90;99.90
66257;DHT22;53049;43.446;3.698;2023-10-31T07:26:15;11.00;99.90
66257;DHT22;53049;43.446;3.698;2023-10-31T07:28:41;11.10;99.90
66257;DHT22;53049;43.446;3.698;2023-10-31T07:31:06;11.30;99.90
66257;DHT22;53049;43.446;3.698;2023-10-31T07:33:32;11.40;99.90
66257;DHT22;53049;43.446;3.698;2023-10-31T07:35:58;11.40;99.90
66257;DHT22;53049;43.446;3.698;2023-10-31T07:38:24;11.50;99.90
66257;DHT22;53049;43.446;3.698;2023-10-31T07:40:49;11.50;99.90
66257;DHT22;53049;43.446;3.698;2023-10-31T07:43:15;11.50;99.90
66257;DHT22;53049;43.446;3.698;2023-10-31T07:45:41;11.60;99.90
66257;DHT22;53049;43.446;3.698;2023-10-31T07:48:08;11.60;99.90
66257;DHT22;53049;43.446;3.698;2023-10-31T07:50:34;11.70;99.90
66257;DHT22;53049;43.446;3.698;2023-10-31T07:52:59;11.80;99.90
66257;DHT22;53049;43.446;3.698;2023-10-31T07:55:25;11.80;99.90
66257;DHT22;53049;43.446;3.698;2023-10-31T07:57:51;11.90;99.90
66257;DHT22;53049;43.446;3.698;2023-10-31T08:00:17;12.00;99.90
66257;DHT22;53049;43.446;3.698;2023-10-31T08:02:42;12.10;99.90
66257;DHT22;53049;43.446;3.698;2023-10-31T08:05:10;12.10;99.90
66257;DHT22;53049;43.446;3.698;2023-10-31T08:07:35;12.20;99.90
66257;DHT22;53049;43.446;3.698;2023-10-31T08:10:01;12.30;99.90
66257;DHT22;53049;43.446;3.698;2023-10-31T08:12:27;12.30;99.90
66257;DHT22;53049;43.446;3.698;2023-10-31T08:14:53;12.40;99.90
66257;DHT22;53049;43.446;3.698;2023-10-31T08:17:18;12.50;99.90
66257;DHT22;53049;43.446;3.698;2023-10-31T08:19:44;12.60;99.90
66257;DHT22;53049;43.446;3.698;2023-10-31T08:22:10;12.60;99.90
66257;DHT22;53049;43.446;3.698;2023-10-31T08:24:35;12.60;99.90
66257;DHT22;53049;43.446;3.698;2023-10-31T08:27:02;12.70;99.90
66257;DHT22;53049;43.446;3.698;2023-10-31T08:29:28;12.70;99.90
66257;DHT22;53049;43.446;3.698;2023-10-31T08:31:54;12.80;99.90
66257;DHT22;53049;43.446;3.698;2023-10-31T08:34:19;12.80;99.90
66257;DHT22;53049;43.446;3.698;2023-10-31T08:36:45;12.90;99.90
66257;DHT22;53049;43.446;3.698;2023-10-31T08:39:11;13.00;99.90
66257;DHT22;53049;43.446;3.698;2023-10-31T08:41:36;13.10;99.90
66257;DHT22;53049;43.446;3.698;2023-10-31T08:44:04;13.20;99.90
66257;DHT22;53049;43.446;3.698;2023-10-31T08:46:30;13.10;99.90
66257;DHT22;53049;43.446;3.698;2023-10-31T08:48:56;13.20;99.90
66257;DHT22;53049;43.446;3.698;2023-10-31T08:51:21;13.20;99.90
66257;DHT22;53049;43.446;3.698;2023-10-31T08:53:48;13.20;99.90
66257;DHT22;53049;43.446;3.698;2023-10-31T08:56:14;13.30;99.90
66257;DHT22;53049;43.446;3.698;2023-10-31T08:58:40;13.40;99.90
66257;DHT22;53049;43.446;3.698;2023-10-31T09:01:06;13.40;99.90
66257;DHT22;53049;43.446;3.698;2023-10-31T09:03:31;13.50;99.90
66257;DHT22;53049;43.446;3.698;2023-10-31T09:05:57;13.60;99.90
66257;DHT22;53049;43.446;3.698;2023-10-31T09:08:23;13.60;99.90
66257;DHT22;53049;43.446;3.698;2023-10-31T09:10:48;13.70;99.90
66257;DHT22;53049;43.446;3.698;2023-10-31T09:13:14;13.70;99.90
66257;DHT22;53049;43.446;3.698;2023-10-31T09:15:40;13.80;99.90
66257;DHT22;53049;43.446;3.698;2023-10-31T09:18:06;13.80;99.90
66257;DHT22;53049;43.446;3.698;2023-10-31T09:20:33;13.90;99.90
66257;DHT22;53049;43.446;3.698;2023-10-31T09:22:58;14.10;99.90
66257;DHT22;53049;43.446;3.698;2023-10-31T09:25:24;14.20;99.90
66257;DHT22;53049;43.446;3.698;2023-10-31T09:27:50;14.30;99.90
66257;DHT22;53049;43.446;3.698;2023-10-31T09:30:15;14.40;99.90
66257;DHT22;53049;43.446;3.698;2023-10-31T09:32:41;14.40;99.90
66257;DHT22;53049;43.446;3.698;2023-10-31T09:35:07;14.50;99.90
66257;DHT22;53049;43.446;3.698;2023-10-31T09:37:33;14.60;99.90
66257;DHT22;53049;43.446;3.698;2023-10-31T09:39:59;14.60;99.90
66257;DHT22;53049;43.446;3.698;2023-10-31T09:42:25;14.70;99.90
66257;DHT22;53049;43.446;3.698;2023-10-31T09:44:51;14.70;99.90
66257;DHT22;53049;43.446;3.698;2023-10-31T09:47:16;14.80;99.90
66257;DHT22;53049;43.446;3.698;2023-10-31T09:49:43;14.90;99.90
66257;DHT22;53049;43.446;3.698;2023-10-31T09:52:10;15.00;99.90
66257;DHT22;53049;43.446;3.698;2023-10-31T09:54:37;15.10;99.90
66257;DHT22;53049;43.446;3.698;2023-10-31T09:57:04;15.10;99.90
66257;DHT22;53049;43.446;3.698;2023-10-31T09:59:30;15.30;99.90
66257;DHT22;53049;43.446;3.698;2023-10-31T10:01:55;15.40;99.90
66257;DHT22;53049;43.446;3.698;2023-10-31T10:04:21;15.60;99.90
66257;DHT22;53049;43.446;3.698;2023-10-31T10:07:03;15.70;99.90
66257;DHT22;53049;43.446;3.698;2023-10-31T10:09:29;15.70;99.90
66257;DHT22;53049;43.446;3.698;2023-10-31T10:11:59;15.70;99.90
66257;DHT22;53049;43.446;3.698;2023-10-31T10:14:26;15.80;99.90
66257;DHT22;53049;43.446;3.698;2023-10-31T10:16:57;15.90;99.90
66257;DHT22;53049;43.446;3.698;2023-10-31T10:19:23;16.00;99.90
66257;DHT22;53049;43.446;3.698;2023-10-31T10:21:54;16.10;99.90
66257;DHT22;53049;43.446;3.698;2023-10-31T10:24:21;16.10;99.90
66257;DHT22;53049;43.446;3.698;2023-10-31T10:26:47;16.20;99.90
66257;DHT22;53049;43.446;3.698;2023-10-31T10:29:13;16.30;99.90
66257;DHT22;53049;43.446;3.698;2023-10-31T10:31:39;16.40;99.90
66257;DHT22;53049;43.446;3.698;2023-10-31T10:34:06;16.40;99.90
66257;DHT22;53049;43.446;3.698;2023-10-31T10:36:33;16.50;99.90
66257;DHT22;53049;43.446;3.698;2023-10-31T10:38:59;16.60;99.90
66257;DHT22;53049;43.446;3.698;2023-10-31T10:41:29;16.70;99.90
66257;DHT22;53049;43.446;3.698;2023-10-31T10:44:05;16.70;99.90
66257;DHT22;53049;43.446;3.698;2023-10-31T10:46:34;16.80;99.90
66257;DHT22;53049;43.446;3.698;2023-10-31T10:49:05;16.70;99.90
66257;DHT22;53049;43.446;3.698;2023-10-31T10:51:45;16.70;99.90
66257;DHT22;53049;43.446;3.698;2023-10-31T10:54:22;16.80;99.90
66257;DHT22;53049;43.446;3.698;2023-10-31T10:57:03;17.00;99.90
66257;DHT22;53049;43.446;3.698;2023-10-31T10:59:41;17.20;99.90
66257;DHT22;53049;43.446;3.698;2023-10-31T11:02:07;17.30;99.90
66257;DHT22;53049;43.446;3.698;2023-10-31T11:04:34;17.40;99.90
66257;DHT22;53049;43.446;3.698;2023-10-31T11:07:00;17.30;99.90
66257;DHT22;53049;43.446;3.698;2023-10-31T11:09:27;17.40;99.90
66257;DHT22;53049;43.446;3.698;2023-10-31T11:11:54;17.40;99.90
66257;DHT22;53049;43.446;3.698;2023-10-31T11:14:20;17.50;99.90
66257;DHT22;53049;43.446;3.698;2023-10-31T11:16:51;17.50;99.90
66257;DHT22;53049;43.446;3.698;2023-10-31T11:19:17;17.60;99.90
66257;DHT22;53049;43.446;3.698;2023-10-31T11:22:00;17.60;99.90
66257;DHT22;53049;43.446;3.698;2023-10-31T11:24:48;17.60;99.90
66257;DHT22;53049;43.446;3.698;2023-10-31T11:27:12;17.60;99.90
66257;DHT22;53049;43.446;3.698;2023-10-31T11:29:38;17.60;99.90
66257;DHT22;53049;43.446;3.698;2023-10-31T11:32:04;17.60;99.90
66257;DHT22;53049;43.446;3.698;2023-10-31T11:34:33;17.70;99.90
66257;DHT22;53049;43.446;3.698;2023-10-31T11:37:23;17.70;99.90
66257;DHT22;53049;43.446;3.698;2023-10-31T11:40:18;17.80;99.90
66257;DHT22;53049;43.446;3.698;2023-10-31T11:43:04;17.80;99.90
66257;DHT22;53049;43.446;3.698;2023-10-31T11:45:43;17.70;99.90
66257;DHT22;53049;43.446;3.698;2023-10-31T11:48:12;17.70;99.90
66257;DHT22;53049;43.446;3.698;2023-10-31T11:50:39;17.60;99.90
66257;DHT22;53049;43.446;3.698;2023-10-31T11:53:13;17.50;99.90
66257;DHT22;53049;43.446;3.698;2023-10-31T11:55:42;17.50;99.90
66257;DHT22;53049;43.446;3.698;2023-10-31T11:58:21;17.50;99.90
66257;DHT22;53049;43.446;3.698;2023-10-31T12:00:49;17.70;99.90
66257;DHT22;53049;43.446;3.698;2023-10-31T12:03:20;17.70;99.90
66257;DHT22;53049;43.446;3.698;2023-10-31T12:05:58;17.90;99.90
66257;DHT22;53049;43.446;3.698;2023-10-31T12:08:28;17.90;99.90
66257;DHT22;53049;43.446;3.698;2023-10-31T12:11:06;17.90;99.90
66257;DHT22;53049;43.446;3.698;2023-10-31T12:13:33;17.90;99.90
66257;DHT22;53049;43.446;3.698;2023-10-31T12:15:59;18.00;99.90
66257;DHT22;53049;43.446;3.698;2023-10-31T12:18:27;18.10;99.90
66257;DHT22;53049;43.446;3.698;2023-10-31T12:20:53;18.10;99.90
66257;DHT22;53049;43.446;3.698;2023-10-31T12:23:19;18.10;99.90
66257;DHT22;53049;43.446;3.698;2023-10-31T12:25:48;18.20;99.90
66257;DHT22;53049;43.446;3.698;2023-10-31T12:28:18;18.20;99.90
66257;DHT22;53049;43.446;3.698;2023-10-31T12:30:48;18.10;99.90
66257;DHT22;53049;43.446;3.698;2023-10-31T12:33:17;18.10;99.90
66257;DHT22;53049;43.446;3.698;2023-10-31T12:35:44;18.00;99.90
66257;DHT22;53049;43.446;3.698;2023-10-31T12:38:13;17.90;99.90
66257;DHT22;53049;43.446;3.698;2023-10-31T12:40:40;17.90;99.90
66257;DHT22;53049;43.446;3.698;2023-10-31T12:43:08;18.00;99.90
66257;DHT22;53049;43.446;3.698;2023-10-31T12:45:35;17.90;99.90
66257;DHT22;53049;43.446;3.698;2023-10-31T12:48:07;17.90;99.90
66257;DHT22;53049;43.446;3.698;2023-10-31T12:50:35;18.10;99.90
66257;DHT22;53049;43.446;3.698;2023-10-31T12:53:03;18.20;99.90
66257;DHT22;53049;43.446;3.698;2023-10-31T12:55:31;18.10;99.90
66257;DHT22;53049;43.446;3.698;2023-10-31T12:58:02;18.10;99.90
66257;DHT22;53049;43.446;3.698;2023-10-31T13:00:33;18.10;99.90
66257;DHT22;53049;43.446;3.698;2023-10-31T13:03:04;18.20;99.90
66257;DHT22;53049;43.446;3.698;2023-10-31T13:05:30;18.20;99.90
66257;DHT22;53049;43.446;3.698;2023-10-31T13:07:57;18.30;99.90
66257;DHT22;53049;43.446;3.698;2023-10-31T13:10:24;18.40;99.90
66257;DHT22;53049;43.446;3.698;2023-10-31T13:12:51;18.30;99.90
66257;DHT22;53049;43.446;3.698;2023-10-31T13:15:19;18.40;99.90
66257;DHT22;53049;43.446;3.698;2023-10-31T13:17:46;18.40;99.90
66257;DHT22;53049;43.446;3.698;2023-10-31T13:20:13;18.40;99.90
66257;DHT22;53049;43.446;3.698;2023-10-31T13:22:39;18.40;99.90
66257;DHT22;53049;43.446;3.698;2023-10-31T13:25:07;18.40;99.90
66257;DHT22;53049;43.446;3.698;2023-10-31T13:27:35;18.40;99.90
66257;DHT22;53049;43.446;3.698;2023-10-31T13:30:02;18.50;99.90
66257;DHT22;53049;43.446;3.698;2023-10-31T13:32:28;18.50;99.90
66257;DHT22;53049;43.446;3.698;2023-10-31T13:34:53;18.40;99.90
66257;DHT22;53049;43.446;3.698;2023-10-31T13:37:19;18.40;99.90
66257;DHT22;53049;43.446;3.698;2023-10-31T13:39:46;18.40;99.90
66257;DHT22;53049;43.446;3.698;2023-10-31T13:42:12;18.40;99.90
66257;DHT22;53049;43.446;3.698;2023-10-31T13:44:38;18.50;99.90
66257;DHT22;53049;43.446;3.698;2023-10-31T13:47:03;18.50;99.90
66257;DHT22;53049;43.446;3.698;2023-10-31T13:49:29;18.50;99.90
66257;DHT22;53049;43.446;3.698;2023-10-31T13:51:55;18.40;99.90
66257;DHT22;53049;43.446;3.698;2023-10-31T13:54:21;18.50;99.90
66257;DHT22;53049;43.446;3.698;2023-10-31T13:56:47;18.50;99.90
66257;DHT22;53049;43.446;3.698;2023-10-31T13:59:13;18.40;99.90
66257;DHT22;53049;43.446;3.698;2023-10-31T14:01:40;18.50;99.90
66257;DHT22;53049;43.446;3.698;2023-10-31T14:04:07;18.40;99.90
66257;DHT22;53049;43.446;3.698;2023-10-31T14:06:33;18.40;99.90
66257;DHT22;53049;43.446;3.698;2023-10-31T14:08:59;18.40;99.90
66257;DHT22;53049;43.446;3.698;2023-10-31T14:11:26;18.40;99.90
66257;DHT22;53049;43.446;3.698;2023-10-31T14:13:51;18.50;99.90
66257;DHT22;53049;43.446;3.698;2023-10-31T14:16:18;18.50;99.90
66257;DHT22;53049;43.446;3.698;2023-10-31T14:18:44;18.50;99.90
66257;DHT22;53049;43.446;3.698;2023-10-31T14:21:11;18.60;99.90
66257;DHT22;53049;43.446;3.698;2023-10-31T14:23:37;18.60;99.90
66257;DHT22;53049;43.446;3.698;2023-10-31T14:26:03;18.60;99.90
66257;DHT22;53049;43.446;3.698;2023-10-31T14:28:28;18.50;99.90
66257;DHT22;53049;43.446;3.698;2023-10-31T14:30:54;18.50;99.90
66257;DHT22;53049;43.446;3.698;2023-10-31T14:33:20;18.60;99.90
66257;DHT22;53049;43.446;3.698;2023-10-31T14:35:45;18.50;99.90
66257;DHT22;53049;43.446;3.698;2023-10-31T14:38:11;18.50;99.90
66257;DHT22;53049;43.446;3.698;2023-10-31T14:40:37;18.50;99.90
66257;DHT22;53049;43.446;3.698;2023-10-31T14:43:03;18.50;99.90
66257;DHT22;53049;43.446;3.698;2023-10-31T14:45:28;18.50;99.90
66257;DHT22;53049;43.446;3.698;2023-10-31T14:47:54;18.50;99.90
66257;DHT22;53049;43.446;3.698;2023-10-31T14:50:20;18.50;99.90
66257;DHT22;53049;43.446;3.698;2023-10-31T14:52:49;18.60;99.90
66257;DHT22;53049;43.446;3.698;2023-10-31T14:55:14;18.60;99.90
66257;DHT22;53049;43.446;3.698;2023-10-31T14:57:41;18.50;99.90
66257;DHT22;53049;43.446;3.698;2023-10-31T15:00:07;18.50;99.90
66257;DHT22;53049;43.446;3.698;2023-10-31T15:02:34;18.50;99.90
66257;DHT22;53049;43.446;3.698;2023-10-31T15:05:00;18.50;99.90
66257;DHT22;53049;43.446;3.698;2023-10-31T15:07:29;18.50;99.90
66257;DHT22;53049;43.446;3.698;2023-10-31T15:09:54;18.50;99.90
66257;DHT22;53049;43.446;3.698;2023-10-31T15:12:20;18.50;99.90
66257;DHT22;53049;43.446;3.698;2023-10-31T15:14:46;18.50;99.90
66257;DHT22;53049;43.446;3.698;2023-10-31T15:17:12;18.50;99.90
66257;DHT22;53049;43.446;3.698;2023-10-31T15:19:39;18.50;99.90
66257;DHT22;53049;43.446;3.698;2023-10-31T15:22:04;18.50;99.90
66257;DHT22;53049;43.446;3.698;2023-10-31T15:24:30;18.50;99.90
66257;DHT22;53049;43.446;3.698;2023-10-31T15:26:58;18.40;99.90
66257;DHT22;53049;43.446;3.698;2023-10-31T15:29:24;18.40;99.90